sensor_id;sensor_type;location;lat;lon;timestamp;noise_LAeq;noise_LA_min;noise_LA_max;noise_LA01;noise_LA95
45651;Laerm;31365;48.858;8.530;2024-01-07T00:00:31;54.40;35.36;75.02;;
45651;Laerm;31365;48.858;8.530;2024-01-07T00:05:27;47.10;35.36;69.40;;
45651;Laerm;31365;48.858;8.530;2024-01-07T00:08:00;55.57;36.77;73.34;;
45651;Laerm;31365;48.858;8.530;2024-01-07T00:10:28;59.65;38.37;76.69;;
45651;Laerm;31365;48.858;8.530;2024-01-07T00:12:57;57.20;35.94;76.72;;
45651;Laerm;31365;48.858;8.530;2024-01-07T00:15:26;39.99;35.04;47.77;;
45651;Laerm;31365;48.858;8.530;2024-01-07T00:17:54;39.35;35.04;51.26;;
45651;Laerm;31365;48.858;8.530;2024-01-07T00:20:23;40.80;35.36;49.58;;
45651;Laerm;31365;48.858;8.530;2024-01-07T00:22:51;56.55;35.04;76.05;;
45651;Laerm;31365;48.858;8.530;2024-01-07T00:25:20;53.74;34.31;71.92;;
45651;Laerm;31365;48.858;8.530;2024-01-07T00:27:48;39.24;32.93;51.43;;
45651;Laerm;31365;48.858;8.530;2024-01-07T00:30:18;39.21;33.90;48.46;;
45651;Laerm;31365;48.858;8.530;2024-01-07T00:32:48;54.75;32.93;73.37;;
45651;Laerm;31365;48.858;8.530;2024-01-07T00:35:18;59.18;35.94;78.50;;
45651;Laerm;31365;48.858;8.530;2024-01-07T00:37:47;40.42;36.45;47.06;;
45651;Laerm;31365;48.858;8.530;2024-01-07T00:40:15;59.84;37.32;79.34;;
45651;Laerm;31365;48.858;8.530;2024-01-07T00:42:44;59.50;37.12;75.77;;
45651;Laerm;31365;48.858;8.530;2024-01-07T00:45:12;54.12;36.20;74.17;;
45651;Laerm;31365;48.858;8.530;2024-01-07T00:47:41;40.70;37.32;46.69;;
45651;Laerm;31365;48.858;8.530;2024-01-07T00:50:11;41.05;37.70;49.15;;
45651;Laerm;31365;48.858;8.530;2024-01-07T00:55:10;41.19;36.98;49.83;;
45651;Laerm;31365;48.858;8.530;2024-01-07T00:57:38;52.48;38.37;73.41;;
45651;Laerm;31365;48.858;8.530;2024-01-07T01:00:08;41.00;37.52;46.28;;
45651;Laerm;31365;48.858;8.530;2024-01-07T01:02:37;41.10;38.05;51.50;;
45651;Laerm;31365;48.858;8.530;2024-01-07T01:05:07;57.74;37.88;74.35;;
45651;Laerm;31365;48.858;8.530;2024-01-07T01:07:36;41.76;39.46;46.87;;
45651;Laerm;31365;48.858;8.530;2024-01-07T01:10:06;42.06;39.58;47.02;;
45651;Laerm;31365;48.858;8.530;2024-01-07T01:12:35;42.21;40.03;46.87;;
45651;Laerm;31365;48.858;8.530;2024-01-07T01:15:04;59.49;40.13;77.48;;
45651;Laerm;31365;48.858;8.530;2024-01-07T01:17:33;60.28;39.78;78.41;;
45651;Laerm;31365;48.858;8.530;2024-01-07T01:20:01;53.34;38.95;70.36;;
45651;Laerm;31365;48.858;8.530;2024-01-07T01:22:30;41.35;38.05;44.47;;
45651;Laerm;31365;48.858;8.530;2024-01-07T01:25:00;42.11;38.95;45.33;;
45651;Laerm;31365;48.858;8.530;2024-01-07T01:27:29;43.47;38.05;55.77;;
45651;Laerm;31365;48.858;8.530;2024-01-07T01:29:58;41.07;37.70;50.73;;
45651;Laerm;31365;48.858;8.530;2024-01-07T01:32:26;45.18;38.21;68.41;;
45651;Laerm;31365;48.858;8.530;2024-01-07T01:34:55;41.24;38.37;49.03;;
45651;Laerm;31365;48.858;8.530;2024-01-07T01:37:23;41.42;38.81;47.84;;
45651;Laerm;31365;48.858;8.530;2024-01-07T01:39:51;56.71;38.67;74.82;;
45651;Laerm;31365;48.858;8.530;2024-01-07T01:42:21;57.25;38.37;75.88;;
45651;Laerm;31365;48.858;8.530;2024-01-07T01:44:50;56.18;38.81;73.87;;
45651;Laerm;31365;48.858;8.530;2024-01-07T01:48:22;41.26;38.52;48.70;;
45651;Laerm;31365;48.858;8.530;2024-01-07T01:50:52;41.00;37.70;49.14;;
45651;Laerm;31365;48.858;8.530;2024-01-07T01:53:23;40.84;37.32;48.25;;
45651;Laerm;31365;48.858;8.530;2024-01-07T01:55:57;54.37;38.21;73.03;;
45651;Laerm;31365;48.858;8.530;2024-01-07T01:58:26;41.07;38.21;48.77;;
45651;Laerm;31365;48.858;8.530;2024-01-07T02:00:56;55.32;38.67;76.06;;
45651;Laerm;31365;48.858;8.530;2024-01-07T02:03:26;55.16;38.37;73.21;;
45651;Laerm;31365;48.858;8.530;2024-01-07T02:05:55;41.11;37.32;47.55;;
45651;Laerm;31365;48.858;8.530;2024-01-07T02:08:25;41.18;38.05;46.30;;
45651;Laerm;31365;48.858;8.530;2024-01-07T02:10:54;55.90;38.95;75.84;;
45651;Laerm;31365;48.858;8.530;2024-01-07T02:13:22;57.27;40.13;77.12;;
45651;Laerm;31365;48.858;8.530;2024-01-07T02:15:50;41.58;38.81;50.38;;
45651;Laerm;31365;48.858;8.530;2024-01-07T02:18:19;50.28;37.70;68.86;;
45651;Laerm;31365;48.858;8.530;2024-01-07T02:20:48;51.53;37.70;71.36;;
45651;Laerm;31365;48.858;8.530;2024-01-07T02:23:17;40.94;37.32;44.83;;
45651;Laerm;31365;48.858;8.530;2024-01-07T02:25:46;40.49;36.91;44.27;;
45651;Laerm;31365;48.858;8.530;2024-01-07T02:28:14;40.54;36.45;48.10;;
45651;Laerm;31365;48.858;8.530;2024-01-07T02:30:43;40.00;35.86;51.17;;
45651;Laerm;31365;48.858;8.530;2024-01-07T02:33:11;39.77;35.94;49.56;;
45651;Laerm;31365;48.858;8.530;2024-01-07T02:35:39;39.87;35.94;46.84;;
45651;Laerm;31365;48.858;8.530;2024-01-07T02:38:08;39.77;35.66;45.14;;
45651;Laerm;31365;48.858;8.530;2024-01-07T02:40:37;52.87;35.66;72.60;;
45651;Laerm;31365;48.858;8.530;2024-01-07T02:43:06;39.57;35.66;48.58;;
45651;Laerm;31365;48.858;8.530;2024-01-07T02:45:34;55.41;35.36;74.62;;
45651;Laerm;31365;48.858;8.530;2024-01-07T02:48:03;52.84;35.66;72.80;;
45651;Laerm;31365;48.858;8.530;2024-01-07T02:50:34;39.45;35.36;48.74;;
45651;Laerm;31365;48.858;8.530;2024-01-07T02:53:03;39.21;34.69;45.17;;
45651;Laerm;31365;48.858;8.530;2024-01-07T02:55:31;39.07;34.69;50.37;;
45651;Laerm;31365;48.858;8.530;2024-01-07T02:58:00;39.20;35.36;45.23;;
45651;Laerm;31365;48.858;8.530;2024-01-07T03:00:30;54.37;35.04;74.68;;
45651;Laerm;31365;48.858;8.530;2024-01-07T03:02:58;39.45;34.31;46.20;;
45651;Laerm;31365;48.858;8.530;2024-01-07T03:05:26;55.51;35.36;77.10;;
45651;Laerm;31365;48.858;8.530;2024-01-07T03:07:59;55.59;35.66;76.79;;
45651;Laerm;31365;48.858;8.530;2024-01-07T03:10:27;51.81;35.66;69.29;;
45651;Laerm;31365;48.858;8.530;2024-01-07T03:12:56;39.15;34.34;48.00;;
45651;Laerm;31365;48.858;8.530;2024-01-07T03:15:25;54.77;33.44;74.76;;
45651;Laerm;31365;48.858;8.530;2024-01-07T03:17:57;39.11;35.04;48.77;;
45651;Laerm;31365;48.858;8.530;2024-01-07T03:20:25;38.94;34.31;47.17;;
45651;Laerm;31365;48.858;8.530;2024-01-07T03:22:54;38.40;33.44;49.98;;
45651;Laerm;31365;48.858;8.530;2024-01-07T03:25:22;38.75;33.44;49.95;;
45651;Laerm;31365;48.858;8.530;2024-01-07T03:27:51;38.82;33.44;43.90;;
45651;Laerm;31365;48.858;8.530;2024-01-07T03:30:19;38.93;33.44;45.27;;
45651;Laerm;31365;48.858;8.530;2024-01-07T03:32:47;38.82;34.31;43.54;;
45651;Laerm;31365;48.858;8.530;2024-01-07T03:35:17;38.55;33.90;46.20;;
45651;Laerm;31365;48.858;8.530;2024-01-07T03:40:16;39.55;34.31;48.48;;
45651;Laerm;31365;48.858;8.530;2024-01-07T03:42:44;41.37;38.05;46.45;;
45651;Laerm;31365;48.858;8.530;2024-01-07T03:45:12;42.60;39.81;50.40;;
45651;Laerm;31365;48.858;8.530;2024-01-07T03:47:40;42.22;39.99;51.17;;
45651;Laerm;31365;48.858;8.530;2024-01-07T03:50:09;42.10;39.92;45.39;;
45651;Laerm;31365;48.858;8.530;2024-01-07T03:52:39;43.88;40.03;56.09;;
45651;Laerm;31365;48.858;8.530;2024-01-07T03:55:08;56.90;40.03;75.77;;
45651;Laerm;31365;48.858;8.530;2024-01-07T03:57:36;56.79;39.70;77.32;;
45651;Laerm;31365;48.858;8.530;2024-01-07T04:00:06;42.25;39.70;52.12;;
45651;Laerm;31365;48.858;8.530;2024-01-07T04:02:35;56.08;40.71;78.09;;
45651;Laerm;31365;48.858;8.530;2024-01-07T04:05:04;42.66;40.98;50.77;;
45651;Laerm;31365;48.858;8.530;2024-01-07T04:07:34;42.42;40.33;46.84;;
45651;Laerm;31365;48.858;8.530;2024-01-07T04:10:04;42.35;39.34;47.02;;
45651;Laerm;31365;48.858;8.530;2024-01-07T04:12:32;57.56;39.81;80.06;;
45651;Laerm;31365;48.858;8.530;2024-01-07T04:15:01;50.92;38.95;67.68;;
45651;Laerm;31365;48.858;8.530;2024-01-07T04:19:58;55.51;37.88;74.76;;
45651;Laerm;31365;48.858;8.530;2024-01-07T04:22:27;41.04;37.88;45.01;;
45651;Laerm;31365;48.858;8.530;2024-01-07T04:24:55;51.53;38.05;70.78;;
45651;Laerm;31365;48.858;8.530;2024-01-07T04:27:25;40.78;37.70;46.57;;
45651;Laerm;31365;48.858;8.530;2024-01-07T04:29:53;40.75;37.70;44.65;;
45651;Laerm;31365;48.858;8.530;2024-01-07T04:32:21;50.36;36.91;68.42;;
45651;Laerm;31365;48.858;8.530;2024-01-07T04:34:49;52.96;37.32;71.41;;
45651;Laerm;31365;48.858;8.530;2024-01-07T04:37:17;53.98;35.94;73.24;;
45651;Laerm;31365;48.858;8.530;2024-01-07T04:39:46;56.74;36.69;78.54;;
45651;Laerm;31365;48.858;8.530;2024-01-07T04:42:15;39.63;35.66;45.07;;
45651;Laerm;31365;48.858;8.530;2024-01-07T04:44:45;39.58;35.59;44.01;;
45651;Laerm;31365;48.858;8.530;2024-01-07T04:47:29;54.91;35.66;75.67;;
45651;Laerm;31365;48.858;8.530;2024-01-07T04:49:58;53.02;35.04;70.86;;
45651;Laerm;31365;48.858;8.530;2024-01-07T04:52:26;40.06;34.69;44.87;;
45651;Laerm;31365;48.858;8.530;2024-01-07T04:54:56;39.55;35.04;44.65;;
45651;Laerm;31365;48.858;8.530;2024-01-07T04:57:25;53.10;35.01;71.87;;
45651;Laerm;31365;48.858;8.530;2024-01-07T04:59:54;54.36;35.36;73.57;;
45651;Laerm;31365;48.858;8.530;2024-01-07T05:02:22;40.35;35.36;50.44;;
45651;Laerm;31365;48.858;8.530;2024-01-07T05:04:50;56.72;35.04;74.72;;
45651;Laerm;31365;48.858;8.530;2024-01-07T05:07:19;46.00;35.36;70.07;;
45651;Laerm;31365;48.858;8.530;2024-01-07T05:09:47;39.74;35.66;46.48;;
45651;Laerm;31365;48.858;8.530;2024-01-07T05:12:15;40.77;35.66;50.87;;
45651;Laerm;31365;48.858;8.530;2024-01-07T05:14:44;39.43;35.04;45.45;;
45651;Laerm;31365;48.858;8.530;2024-01-07T05:17:14;54.03;35.66;73.27;;
45651;Laerm;31365;48.858;8.530;2024-01-07T05:19:43;57.61;35.04;81.26;;
45651;Laerm;31365;48.858;8.530;2024-01-07T05:22:11;65.55;35.66;87.51;;
45651;Laerm;31365;48.858;8.530;2024-01-07T05:24:41;40.08;36.45;44.49;;
45651;Laerm;31365;48.858;8.530;2024-01-07T05:27:10;39.43;34.69;43.44;;
45651;Laerm;31365;48.858;8.530;2024-01-07T05:29:38;39.47;35.04;44.94;;
45651;Laerm;31365;48.858;8.530;2024-01-07T05:32:08;52.58;35.01;69.00;;
45651;Laerm;31365;48.858;8.530;2024-01-07T05:34:38;47.76;35.66;67.59;;
45651;Laerm;31365;48.858;8.530;2024-01-07T05:37:06;39.34;33.44;43.49;;
45651;Laerm;31365;48.858;8.530;2024-01-07T05:39:35;39.05;33.90;43.99;;
45651;Laerm;31365;48.858;8.530;2024-01-07T05:42:03;41.21;35.36;58.45;;
45651;Laerm;31365;48.858;8.530;2024-01-07T05:44:32;56.39;35.94;75.04;;
45651;Laerm;31365;48.858;8.530;2024-01-07T05:47:00;54.18;35.36;74.94;;
45651;Laerm;31365;48.858;8.530;2024-01-07T05:49:29;40.02;35.36;45.80;;
45651;Laerm;31365;48.858;8.530;2024-01-07T05:51:59;55.10;34.69;76.05;;
45651;Laerm;31365;48.858;8.530;2024-01-07T05:54:27;51.85;35.01;69.23;;
45651;Laerm;31365;48.858;8.530;2024-01-07T05:56:58;39.64;34.31;44.12;;
45651;Laerm;31365;48.858;8.530;2024-01-07T05:59:27;57.99;33.44;78.90;;
45651;Laerm;31365;48.858;8.530;2024-01-07T06:01:58;40.00;34.31;44.73;;
45651;Laerm;31365;48.858;8.530;2024-01-07T06:04:27;39.17;33.44;43.09;;
45651;Laerm;31365;48.858;8.530;2024-01-07T06:06:55;56.33;35.04;76.46;;
45651;Laerm;31365;48.858;8.530;2024-01-07T06:09:25;42.72;35.66;54.47;;
45651;Laerm;31365;48.858;8.530;2024-01-07T06:11:55;59.57;35.66;79.34;;
45651;Laerm;31365;48.858;8.530;2024-01-07T06:14:23;56.34;35.59;72.54;;
45651;Laerm;31365;48.858;8.530;2024-01-07T06:16:51;39.14;34.31;43.81;;
45651;Laerm;31365;48.858;8.530;2024-01-07T06:19:21;39.25;33.90;43.29;;
45651;Laerm;31365;48.858;8.530;2024-01-07T06:21:49;48.37;35.66;69.93;;
45651;Laerm;31365;48.858;8.530;2024-01-07T06:24:18;57.86;34.69;76.35;;
45651;Laerm;31365;48.858;8.530;2024-01-07T06:26:48;54.12;33.90;74.59;;
45651;Laerm;31365;48.858;8.530;2024-01-07T06:29:16;53.24;33.44;73.55;;
45651;Laerm;31365;48.858;8.530;2024-01-07T06:31:46;41.38;36.69;44.69;;
45651;Laerm;31365;48.858;8.530;2024-01-07T06:34:15;55.26;36.69;76.35;;
45651;Laerm;31365;48.858;8.530;2024-01-07T06:36:44;55.07;34.69;75.91;;
45651;Laerm;31365;48.858;8.530;2024-01-07T06:39:12;52.03;34.69;71.32;;
45651;Laerm;31365;48.858;8.530;2024-01-07T06:41:40;39.24;33.90;45.45;;
45651;Laerm;31365;48.858;8.530;2024-01-07T06:44:32;54.17;33.90;76.31;;
45651;Laerm;31365;48.858;8.530;2024-01-07T06:47:00;52.59;34.31;71.00;;
45651;Laerm;31365;48.858;8.530;2024-01-07T06:49:28;41.13;35.01;49.95;;
45651;Laerm;31365;48.858;8.530;2024-01-07T06:54:25;53.24;33.44;72.24;;
45651;Laerm;31365;48.858;8.530;2024-01-07T06:56:54;52.61;34.31;71.37;;
45651;Laerm;31365;48.858;8.530;2024-01-07T06:59:22;39.57;33.44;47.72;;
45651;Laerm;31365;48.858;8.530;2024-01-07T07:01:52;54.86;35.36;75.37;;
45651;Laerm;31365;48.858;8.530;2024-01-07T07:04:22;60.22;39.81;81.48;;
45651;Laerm;31365;48.858;8.530;2024-01-07T07:06:50;58.41;36.20;75.25;;
45651;Laerm;31365;48.858;8.530;2024-01-07T07:09:22;59.08;36.45;74.90;;
45651;Laerm;31365;48.858;8.530;2024-01-07T07:11:51;40.80;34.69;46.62;;
45651;Laerm;31365;48.858;8.530;2024-01-07T07:14:19;42.01;35.04;51.30;;
45651;Laerm;31365;48.858;8.530;2024-01-07T07:16:47;50.31;35.04;76.24;;
45651;Laerm;31365;48.858;8.530;2024-01-07T07:19:17;56.97;36.91;75.07;;
45651;Laerm;31365;48.858;8.530;2024-01-07T07:22:06;53.25;36.69;69.99;;
45651;Laerm;31365;48.858;8.530;2024-01-07T07:24:34;52.39;36.91;71.41;;
45651;Laerm;31365;48.858;8.530;2024-01-07T07:27:03;40.06;36.45;43.68;;
45651;Laerm;31365;48.858;8.530;2024-01-07T07:29:31;59.86;37.32;77.76;;
45651;Laerm;31365;48.858;8.530;2024-01-07T07:32:00;54.03;35.94;71.74;;
45651;Laerm;31365;48.858;8.530;2024-01-07T07:34:30;55.60;35.31;76.44;;
45651;Laerm;31365;48.858;8.530;2024-01-07T07:36:58;61.63;37.12;78.30;;
45651;Laerm;31365;48.858;8.530;2024-01-07T07:39:26;54.63;38.52;72.90;;
45651;Laerm;31365;48.858;8.530;2024-01-07T07:41:55;56.66;37.52;75.10;;
45651;Laerm;31365;48.858;8.530;2024-01-07T07:44:26;58.10;37.12;83.31;;
45651;Laerm;31365;48.858;8.530;2024-01-07T07:46:55;55.63;38.37;74.29;;
45651;Laerm;31365;48.858;8.530;2024-01-07T07:49:23;61.40;38.21;79.23;;
45651;Laerm;31365;48.858;8.530;2024-01-07T07:51:57;62.50;39.57;80.34;;
45651;Laerm;31365;48.858;8.530;2024-01-07T07:54:25;60.25;40.53;76.29;;
45651;Laerm;31365;48.858;8.530;2024-01-07T07:56:54;62.83;40.03;79.47;;
45651;Laerm;31365;48.858;8.530;2024-01-07T07:59:22;61.43;39.21;77.19;;
45651;Laerm;31365;48.858;8.530;2024-01-07T08:01:50;62.65;41.22;79.89;;
45651;Laerm;31365;48.858;8.530;2024-01-07T08:04:19;55.65;41.22;71.50;;
45651;Laerm;31365;48.858;8.530;2024-01-07T08:06:47;62.76;40.27;79.92;;
45651;Laerm;31365;48.858;8.530;2024-01-07T08:09:17;60.84;41.96;77.48;;
45651;Laerm;31365;48.858;8.530;2024-01-07T08:11:45;63.49;40.71;83.29;;
45651;Laerm;31365;48.858;8.530;2024-01-07T08:14:13;62.37;39.58;77.41;;
45651;Laerm;31365;48.858;8.530;2024-01-07T08:16:41;63.48;39.58;77.36;;
45651;Laerm;31365;48.858;8.530;2024-01-07T08:21:38;64.93;41.30;81.10;;
45651;Laerm;31365;48.858;8.530;2024-01-07T08:24:06;59.25;40.33;76.99;;
45651;Laerm;31365;48.858;8.530;2024-01-07T08:26:36;55.99;40.13;76.83;;
45651;Laerm;31365;48.858;8.530;2024-01-07T08:29:04;56.65;40.03;75.15;;
45651;Laerm;31365;48.858;8.530;2024-01-07T08:31:34;62.55;39.92;78.43;;
45651;Laerm;31365;48.858;8.530;2024-01-07T08:34:03;61.57;41.75;78.43;;
45651;Laerm;31365;48.858;8.530;2024-01-07T08:36:31;65.66;43.19;79.78;;
45651;Laerm;31365;48.858;8.530;2024-01-07T08:39:00;63.95;40.33;81.36;;
45651;Laerm;31365;48.858;8.530;2024-01-07T08:41:28;60.08;41.30;78.08;;
45651;Laerm;31365;48.858;8.530;2024-01-07T08:44:00;56.27;40.62;73.87;;
45651;Laerm;31365;48.858;8.530;2024-01-07T08:46:29;43.08;38.81;58.39;;
45651;Laerm;31365;48.858;8.530;2024-01-07T08:51:26;57.74;40.62;76.83;;
45651;Laerm;31365;48.858;8.530;2024-01-07T08:53:57;58.59;39.58;73.68;;
45651;Laerm;31365;48.858;8.530;2024-01-07T08:56:26;61.50;38.21;80.08;;
45651;Laerm;31365;48.858;8.530;2024-01-07T08:58:53;62.42;39.08;82.83;;
45651;Laerm;31365;48.858;8.530;2024-01-07T09:01:22;62.88;38.67;79.38;;
45651;Laerm;31365;48.858;8.530;2024-01-07T09:03:52;65.93;43.94;82.78;;
45651;Laerm;31365;48.858;8.530;2024-01-07T09:06:21;58.77;43.51;76.15;;
45651;Laerm;31365;48.858;8.530;2024-01-07T09:08:49;62.38;40.53;77.87;;
45651;Laerm;31365;48.858;8.530;2024-01-07T09:11:19;61.86;39.34;81.48;;
45651;Laerm;31365;48.858;8.530;2024-01-07T09:13:48;59.76;39.08;75.82;;
45651;Laerm;31365;48.858;8.530;2024-01-07T09:16:17;61.25;38.05;78.25;;
45651;Laerm;31365;48.858;8.530;2024-01-07T09:18:48;59.70;38.67;79.72;;
45651;Laerm;31365;48.858;8.530;2024-01-07T09:21:18;62.75;40.23;79.74;;
45651;Laerm;31365;48.858;8.530;2024-01-07T09:23:46;61.11;37.88;76.09;;
45651;Laerm;31365;48.858;8.530;2024-01-07T09:26:15;57.84;37.12;74.81;;
45651;Laerm;31365;48.858;8.530;2024-01-07T09:28:44;59.89;37.12;80.01;;
45651;Laerm;31365;48.858;8.530;2024-01-07T09:31:12;57.64;38.95;72.76;;
45651;Laerm;31365;48.858;8.530;2024-01-07T09:33:41;62.21;39.81;79.77;;
45651;Laerm;31365;48.858;8.530;2024-01-07T09:36:11;61.58;37.88;76.98;;
45651;Laerm;31365;48.858;8.530;2024-01-07T09:38:55;62.80;37.70;78.36;;
45651;Laerm;31365;48.858;8.530;2024-01-07T09:41:24;61.03;38.05;78.74;;
45651;Laerm;31365;48.858;8.530;2024-01-07T09:43:53;61.04;36.91;81.39;;
45651;Laerm;31365;48.858;8.530;2024-01-07T09:46:23;60.16;38.95;75.48;;
45651;Laerm;31365;48.858;8.530;2024-01-07T09:48:51;57.93;39.70;76.87;;
45651;Laerm;31365;48.858;8.530;2024-01-07T09:51:23;59.28;39.11;75.57;;
45651;Laerm;31365;48.858;8.530;2024-01-07T09:53:58;62.98;39.70;77.09;;
45651;Laerm;31365;48.858;8.530;2024-01-07T09:56:38;59.69;39.81;73.65;;
45651;Laerm;31365;48.858;8.530;2024-01-07T09:59:09;59.69;39.81;73.65;;
45651;Laerm;31365;48.858;8.530;2024-01-07T10:01:40;60.95;38.52;78.84;;
45651;Laerm;31365;48.858;8.530;2024-01-07T10:04:09;63.01;42.03;78.63;;
45651;Laerm;31365;48.858;8.530;2024-01-07T10:09:07;60.89;37.88;79.12;;
45651;Laerm;31365;48.858;8.530;2024-01-07T10:11:35;61.20;38.21;81.46;;
45651;Laerm;31365;48.858;8.530;2024-01-07T10:14:04;57.87;36.45;78.26;;
45651;Laerm;31365;48.858;8.530;2024-01-07T10:16:33;62.37;41.68;78.15;;
45651;Laerm;31365;48.858;8.530;2024-01-07T10:19:01;59.26;37.70;78.19;;
45651;Laerm;31365;48.858;8.530;2024-01-07T10:21:30;61.59;39.99;77.70;;
45651;Laerm;31365;48.858;8.530;2024-01-07T10:24:10;59.71;37.88;76.86;;
45651;Laerm;31365;48.858;8.530;2024-01-07T10:26:39;60.26;36.91;75.92;;
45651;Laerm;31365;48.858;8.530;2024-01-07T10:29:29;58.27;36.69;73.28;;
45651;Laerm;31365;48.858;8.530;2024-01-07T10:31:58;59.69;38.37;79.30;;
45651;Laerm;31365;48.858;8.530;2024-01-07T10:34:28;58.89;38.21;73.44;;
45651;Laerm;31365;48.858;8.530;2024-01-07T10:37:00;61.37;37.70;75.52;;
45651;Laerm;31365;48.858;8.530;2024-01-07T10:39:30;59.56;38.67;71.13;;
45651;Laerm;31365;48.858;8.530;2024-01-07T10:42:00;63.96;40.43;79.06;;
45651;Laerm;31365;48.858;8.530;2024-01-07T10:44:31;59.57;37.32;78.13;;
45651;Laerm;31365;48.858;8.530;2024-01-07T10:47:04;62.22;38.52;74.68;;
45651;Laerm;31365;48.858;8.530;2024-01-07T10:49:36;61.31;39.46;73.99;;
45651;Laerm;31365;48.858;8.530;2024-01-07T10:52:07;61.56;39.46;77.36;;
45651;Laerm;31365;48.858;8.530;2024-01-07T10:54:42;59.51;38.95;73.53;;
45651;Laerm;31365;48.858;8.530;2024-01-07T10:57:19;61.15;46.15;77.68;;
45651;Laerm;31365;48.858;8.530;2024-01-07T10:59:52;59.20;45.57;73.05;;
45651;Laerm;31365;48.858;8.530;2024-01-07T11:02:22;62.99;38.95;79.98;;
45651;Laerm;31365;48.858;8.530;2024-01-07T11:05:05;61.98;39.78;77.78;;
45651;Laerm;31365;48.858;8.530;2024-01-07T11:07:45;61.55;39.21;77.25;;
45651;Laerm;31365;48.858;8.530;2024-01-07T11:10:21;61.55;39.21;77.25;;
45651;Laerm;31365;48.858;8.530;2024-01-07T11:13:04;64.61;40.43;78.11;;
45651;Laerm;31365;48.858;8.530;2024-01-07T11:15:51;63.64;36.56;81.14;;
45651;Laerm;31365;48.858;8.530;2024-01-07T11:18:20;61.09;40.03;77.79;;
45651;Laerm;31365;48.858;8.530;2024-01-07T11:20:49;62.93;37.70;78.77;;
45651;Laerm;31365;48.858;8.530;2024-01-07T11:23:28;60.05;37.88;73.41;;
45651;Laerm;31365;48.858;8.530;2024-01-07T11:25:59;60.11;37.12;76.09;;
45651;Laerm;31365;48.858;8.530;2024-01-07T11:28:45;59.67;38.87;76.87;;
45651;Laerm;31365;48.858;8.530;2024-01-07T11:31:15;60.42;38.37;78.17;;
45651;Laerm;31365;48.858;8.530;2024-01-07T11:33:46;58.82;37.32;73.09;;
45651;Laerm;31365;48.858;8.530;2024-01-07T11:36:16;61.37;39.34;79.14;;
45651;Laerm;31365;48.858;8.530;2024-01-07T11:38:47;57.75;37.52;75.00;;
45651;Laerm;31365;48.858;8.530;2024-01-07T11:41:24;59.76;37.88;73.66;;
45651;Laerm;31365;48.858;8.530;2024-01-07T11:43:55;60.16;38.95;73.37;;
45651;Laerm;31365;48.858;8.530;2024-01-07T11:49:01;59.82;39.46;76.21;;
45651;Laerm;31365;48.858;8.530;2024-01-07T11:51:31;62.38;39.92;74.78;;
45651;Laerm;31365;48.858;8.530;2024-01-07T11:54:01;60.76;40.62;75.58;;
45651;Laerm;31365;48.858;8.530;2024-01-07T11:56:31;63.17;42.03;76.87;;
45651;Laerm;31365;48.858;8.530;2024-01-07T11:58:59;62.43;38.37;76.05;;
45651;Laerm;31365;48.858;8.530;2024-01-07T12:01:28;57.40;37.70;75.17;;
45651;Laerm;31365;48.858;8.530;2024-01-07T12:03:56;62.88;40.23;79.04;;
45651;Laerm;31365;48.858;8.530;2024-01-07T12:06:25;62.62;41.38;79.14;;
45651;Laerm;31365;48.858;8.530;2024-01-07T12:08:53;60.82;38.95;74.70;;
45651;Laerm;31365;48.858;8.530;2024-01-07T12:11:22;60.28;38.32;74.34;;
45651;Laerm;31365;48.858;8.530;2024-01-07T12:16:20;60.15;40.43;78.52;;
45651;Laerm;31365;48.858;8.530;2024-01-07T12:18:49;61.46;40.33;74.55;;
45651;Laerm;31365;48.858;8.530;2024-01-07T12:21:19;61.58;38.21;78.18;;
45651;Laerm;31365;48.858;8.530;2024-01-07T12:23:50;63.53;38.52;75.60;;
45651;Laerm;31365;48.858;8.530;2024-01-07T12:26:19;58.61;36.91;73.91;;
45651;Laerm;31365;48.858;8.530;2024-01-07T12:28:59;62.26;38.21;79.52;;
45651;Laerm;31365;48.858;8.530;2024-01-07T12:31:31;62.86;39.92;78.43;;
45651;Laerm;31365;48.858;8.530;2024-01-07T12:34:02;61.08;39.81;74.82;;
45651;Laerm;31365;48.858;8.530;2024-01-07T12:36:31;57.12;38.52;72.15;;
45651;Laerm;31365;48.858;8.530;2024-01-07T12:38:59;63.53;42.93;79.30;;
45651;Laerm;31365;48.858;8.530;2024-01-07T12:41:27;57.11;37.12;72.57;;
45651;Laerm;31365;48.858;8.530;2024-01-07T12:43:57;58.63;38.37;74.62;;
45651;Laerm;31365;48.858;8.530;2024-01-07T12:46:26;62.00;39.58;75.16;;
45651;Laerm;31365;48.858;8.530;2024-01-07T12:48:55;62.58;41.38;79.18;;
45651;Laerm;31365;48.858;8.530;2024-01-07T12:51:24;60.90;38.05;74.76;;
45651;Laerm;31365;48.858;8.530;2024-01-07T12:53:52;61.27;39.70;77.82;;
45651;Laerm;31365;48.858;8.530;2024-01-07T12:56:21;59.99;39.08;76.70;;
45651;Laerm;31365;48.858;8.530;2024-01-07T12:58:49;57.46;37.32;74.88;;
45651;Laerm;31365;48.858;8.530;2024-01-07T13:01:19;61.57;39.08;77.72;;
45651;Laerm;31365;48.858;8.530;2024-01-07T13:03:48;59.58;38.37;74.48;;
45651;Laerm;31365;48.858;8.530;2024-01-07T13:06:17;59.96;37.88;75.68;;
45651;Laerm;31365;48.858;8.530;2024-01-07T13:08:45;60.60;40.71;76.00;;
45651;Laerm;31365;48.858;8.530;2024-01-07T13:11:14;51.15;37.88;68.53;;
45651;Laerm;31365;48.858;8.530;2024-01-07T13:13:43;59.90;37.32;72.47;;
45651;Laerm;31365;48.858;8.530;2024-01-07T13:16:12;61.77;40.13;78.16;;
45651;Laerm;31365;48.858;8.530;2024-01-07T13:18:41;56.62;39.58;72.13;;
45651;Laerm;31365;48.858;8.530;2024-01-07T13:21:10;59.83;38.21;74.18;;
45651;Laerm;31365;48.858;8.530;2024-01-07T13:23:39;60.59;39.08;77.01;;
45651;Laerm;31365;48.858;8.530;2024-01-07T13:26:12;62.40;41.30;78.71;;
45651;Laerm;31365;48.858;8.530;2024-01-07T13:28:40;62.58;40.53;78.55;;
45651;Laerm;31365;48.858;8.530;2024-01-07T13:31:09;62.07;40.98;76.63;;
45651;Laerm;31365;48.858;8.530;2024-01-07T13:33:41;58.74;42.03;76.27;;
45651;Laerm;31365;48.858;8.530;2024-01-07T13:36:09;62.92;40.53;76.67;;
45651;Laerm;31365;48.858;8.530;2024-01-07T13:38:39;62.88;41.30;80.15;;
45651;Laerm;31365;48.858;8.530;2024-01-07T13:41:11;61.27;38.21;78.14;;
45651;Laerm;31365;48.858;8.530;2024-01-07T13:43:41;61.68;40.53;77.17;;
45651;Laerm;31365;48.858;8.530;2024-01-07T13:46:09;61.74;41.14;78.71;;
45651;Laerm;31365;48.858;8.530;2024-01-07T13:48:38;62.80;41.22;76.83;;
45651;Laerm;31365;48.858;8.530;2024-01-07T13:51:10;60.02;36.91;78.12;;
45651;Laerm;31365;48.858;8.530;2024-01-07T13:53:39;59.69;38.81;76.38;;
45651;Laerm;31365;48.858;8.530;2024-01-07T13:56:07;63.98;39.34;78.25;;
45651;Laerm;31365;48.858;8.530;2024-01-07T13:58:35;63.17;41.06;83.24;;
45651;Laerm;31365;48.858;8.530;2024-01-07T14:01:04;59.34;38.21;75.35;;
45651;Laerm;31365;48.858;8.530;2024-01-07T14:03:35;61.46;41.22;76.78;;
45651;Laerm;31365;48.858;8.530;2024-01-07T14:06:03;62.81;40.43;79.09;;
45651;Laerm;31365;48.858;8.530;2024-01-07T14:08:33;59.35;39.81;75.60;;
45651;Laerm;31365;48.858;8.530;2024-01-07T14:11:01;64.79;41.61;77.62;;
45651;Laerm;31365;48.858;8.530;2024-01-07T14:13:31;61.73;40.23;79.27;;
45651;Laerm;31365;48.858;8.530;2024-01-07T14:15:59;62.97;40.03;76.35;;
45651;Laerm;31365;48.858;8.530;2024-01-07T14:18:27;62.11;40.98;77.13;;
45651;Laerm;31365;48.858;8.530;2024-01-07T14:20:56;64.60;40.62;78.39;;
45651;Laerm;31365;48.858;8.530;2024-01-07T14:23:24;62.82;40.53;81.98;;